Time;durP1;ratioP1;P1;durP2;ratioP2;P2;SDS_P1;SDS_P2;PMS_P1;PMS_P2;Temp;Humidity;BMP_temperature;BMP_pressure;BME280_temperature;BME280_humidity;BME280_pressure;Samples;Min_cycle;Max_cycle;Signal;HPM_P1;HPM_P2
2024/04/18 00:00:35;;;;;;;7.60;4.35;;;7.30;99.90;;;;;;5450422;26;20003;-70
2024/04/18 00:03:00;;;;;;;6.45;4.72;;;7.30;99.90;;;;;;5450723;26;20013;-69
2024/04/18 00:05:26;;;;;;;5.97;4.15;;;7.30;99.90;;;;;;5450694;26;20321;-70
2024/04/18 00:07:52;;;;;;;9.77;4.65;;;7.30;99.90;;;;;;5451071;26;20447;-70
2024/04/18 00:10:18;;;;;;;5.90;4.95;;;7.40;99.90;;;;;;5451159;26;20007;-69
2024/04/18 00:12:43;;;;;;;6.90;4.80;;;7.40;99.90;;;;;;5448899;26;20003;-69
2024/04/18 00:15:09;;;;;;;5.80;4.50;;;7.30;99.90;;;;;;5450976;26;19999;-69
2024/04/18 00:17:36;;;;;;;7.97;4.90;;;7.40;99.90;;;;;;5445941;26;20331;-70
2024/04/18 00:20:02;;;;;;;6.25;4.85;;;7.40;99.90;;;;;;5416977;26;20011;-70
2024/04/18 00:22:28;;;;;;;7.43;4.97;;;7.40;99.90;;;;;;5421425;26;20338;-69
2024/04/18 00:24:54;;;;;;;7.82;4.63;;;7.40;99.90;;;;;;5454301;26;20005;-70
2024/04/18 00:27:20;;;;;;;7.97;5.47;;;7.40;99.90;;;;;;5452650;26;20467;-70
2024/04/18 00:29:46;;;;;;;8.13;4.57;;;7.40;99.90;;;;;;5452940;26;20002;-69
2024/04/18 00:32:14;;;;;;;7.18;4.95;;;7.50;99.90;;;;;;5454515;26;20018;-69
2024/04/18 00:34:40;;;;;;;7.13;5.22;;;7.50;99.90;;;;;;5454126;26;20011;-69
2024/04/18 00:37:06;;;;;;;6.28;4.88;;;7.50;99.90;;;;;;5454343;26;19999;-69
2024/04/18 00:39:31;;;;;;;8.77;5.43;;;7.40;99.90;;;;;;5454143;26;20043;-69
2024/04/18 00:41:58;;;;;;;11.43;5.75;;;7.40;99.90;;;;;;5454203;26;20079;-69
2024/04/18 00:44:23;;;;;;;6.13;5.45;;;7.40;99.90;;;;;;5453649;26;20519;-69
2024/04/18 00:46:49;;;;;;;9.43;6.82;;;7.40;99.90;;;;;;5454075;26;20014;-69
2024/04/18 00:49:16;;;;;;;8.48;5.60;;;7.40;99.90;;;;;;5452986;26;20444;-69
2024/04/18 00:51:43;;;;;;;9.60;6.22;;;7.40;99.90;;;;;;5454005;26;20104;-69
2024/04/18 00:54:10;;;;;;;7.03;5.72;;;7.40;99.90;;;;;;5453648;26;20011;-69
2024/04/18 00:56:38;;;;;;;8.25;6.18;;;7.40;99.90;;;;;;5452428;26;20472;-70
2024/04/18 00:59:05;;;;;;;11.07;6.60;;;7.50;99.90;;;;;;5450306;26;20010;-69
2024/04/18 01:01:32;;;;;;;8.85;7.25;;;7.50;99.90;;;;;;5451215;26;20515;-69
2024/04/18 01:03:57;;;;;;;8.13;7.10;;;7.40;99.90;;;;;;5454110;26;20003;-69
2024/04/18 01:06:23;;;;;;;10.07;7.28;;;7.40;99.90;;;;;;5453736;26;20013;-69
2024/04/18 01:08:50;;;;;;;8.63;6.90;;;7.50;99.90;;;;;;5453406;26;20017;-69
2024/04/18 01:11:16;;;;;;;8.15;6.70;;;7.50;99.90;;;;;;5452039;26;20013;-70
2024/04/18 01:13:42;;;;;;;10.68;7.38;;;7.50;99.90;;;;;;5453329;26;20002;-69
2024/04/18 01:16:08;;;;;;;9.60;7.38;;;7.50;99.90;;;;;;5453886;26;19999;-69
2024/04/18 01:18:35;;;;;;;11.23;7.38;;;7.50;99.90;;;;;;5452024;26;19998;-69
2024/04/18 01:21:01;;;;;;;9.13;7.25;;;7.50;99.90;;;;;;5453788;26;20003;-70
2024/04/18 01:23:27;;;;;;;10.43;6.60;;;7.50;99.90;;;;;;5452219;26;19999;-69
2024/04/18 01:25:53;;;;;;;12.35;7.70;;;7.50;99.90;;;;;;5451387;26;20010;-69
2024/04/18 01:28:20;;;;;;;10.93;7.78;;;7.50;99.90;;;;;;5452400;26;20009;-70
2024/04/18 01:30:47;;;;;;;10.68;8.00;;;7.50;99.90;;;;;;5453407;26;20018;-69
2024/04/18 01:33:12;;;;;;;13.73;9.18;;;7.50;99.90;;;;;;5452712;26;20014;-69
2024/04/18 01:35:38;;;;;;;12.48;9.10;;;7.50;99.90;;;;;;5451935;26;20002;-70
2024/04/18 01:38:04;;;;;;;10.95;8.93;;;7.50;99.90;;;;;;5453477;26;20448;-69
2024/04/18 01:40:29;;;;;;;12.00;8.57;;;7.50;99.90;;;;;;5453281;26;20440;-69
2024/04/18 01:42:56;;;;;;;9.75;8.02;;;7.60;99.90;;;;;;5453301;26;20010;-69
2024/04/18 01:45:26;;;;;;;11.48;7.93;;;7.60;99.90;;;;;;5451545;26;20031;-68
2024/04/18 01:47:55;;;;;;;16.88;9.05;;;7.60;99.90;;;;;;5451308;26;20313;-69
2024/04/18 01:50:27;;;;;;;12.80;8.52;;;7.50;99.90;;;;;;5451313;26;20014;-69
2024/04/18 01:52:52;;;;;;;10.27;8.35;;;7.50;99.90;;;;;;5453301;26;20443;-69
2024/04/18 01:55:18;;;;;;;11.98;8.18;;;7.60;99.90;;;;;;5453012;26;20010;-69
2024/04/18 01:57:44;;;;;;;11.30;7.80;;;7.60;99.90;;;;;;5452749;26;20009;-69
2024/04/18 02:00:10;;;;;;;10.60;8.27;;;7.60;99.90;;;;;;5453232;26;20524;-69
2024/04/18 02:02:36;;;;;;;9.35;8.00;;;7.60;99.90;;;;;;5453480;26;20014;-69
2024/04/18 02:05:02;;;;;;;13.43;8.88;;;7.60;99.90;;;;;;5452869;26;20076;-69
2024/04/18 02:07:28;;;;;;;9.23;7.47;;;7.50;99.90;;;;;;5453608;26;20007;-69
2024/04/18 02:09:53;;;;;;;10.50;9.10;;;7.60;99.90;;;;;;5450968;26;20431;-69
2024/04/18 02:12:19;;;;;;;12.85;9.13;;;7.60;99.90;;;;;;5452829;26;20451;-69
2024/04/18 02:14:45;;;;;;;11.88;8.85;;;7.60;99.90;;;;;;5452961;26;20460;-69
2024/04/18 02:17:11;;;;;;;12.43;9.27;;;7.60;99.90;;;;;;5452171;26;20050;-69
2024/04/18 02:19:36;;;;;;;12.32;8.38;;;7.60;99.90;;;;;;5452209;26;20447;-69
2024/04/18 02:22:03;;;;;;;14.57;10.38;;;7.70;99.90;;;;;;5452768;26;20444;-68
2024/04/18 02:24:29;;;;;;;12.88;9.68;;;7.60;99.90;;;;;;5451155;26;20431;-69
2024/04/18 02:26:54;;;;;;;15.73;9.90;;;7.60;99.90;;;;;;5451782;26;20008;-69
2024/04/18 02:29:20;;;;;;;13.20;8.80;;;7.60;99.90;;;;;;5452793;26;20003;-69
2024/04/18 02:31:46;;;;;;;13.48;9.93;;;7.60;99.90;;;;;;5450207;26;20003;-69
2024/04/18 02:34:11;;;;;;;14.05;10.18;;;7.60;99.90;;;;;;5452876;26;20006;-69
2024/04/18 02:36:37;;;;;;;14.38;10.00;;;7.70;99.90;;;;;;5452171;26;20080;-68
2024/04/18 02:39:03;;;;;;;11.60;9.63;;;7.70;99.90;;;;;;5449890;26;20010;-68
2024/04/18 02:41:28;;;;;;;14.68;9.32;;;7.70;99.90;;;;;;5449112;26;20336;-68
2024/04/18 02:43:54;;;;;;;12.73;9.75;;;7.60;99.90;;;;;;5451775;26;19995;-69
2024/04/18 02:46:22;;;;;;;14.50;10.27;;;7.70;99.90;;;;;;5452174;26;20014;-69
2024/04/18 02:48:48;;;;;;;13.48;10.07;;;7.70;99.90;;;;;;5450365;26;20443;-70
2024/04/18 02:51:14;;;;;;;14.38;10.70;;;7.70;99.90;;;;;;5451870;26;20002;-70
2024/04/18 02:53:39;;;;;;;12.73;10.63;;;7.70;99.90;;;;;;5452710;26;20463;-70
2024/04/18 02:56:05;;;;;;;16.42;10.48;;;7.70;99.90;;;;;;5451834;26;20007;-70
2024/04/18 02:58:31;;;;;;;16.85;11.15;;;7.70;99.90;;;;;;5452336;26;20003;-70
2024/04/18 03:01:02;;;;;;;15.18;10.85;;;7.70;99.90;;;;;;5450111;26;19999;-70
2024/04/18 03:03:27;;;;;;;14.43;10.13;;;7.70;99.90;;;;;;5452577;26;20031;-69
2024/04/18 03:06:03;;;;;;;15.20;12.20;;;7.70;99.90;;;;;;5451137;26;20014;-69
2024/04/18 03:08:28;;;;;;;14.82;10.35;;;7.70;99.90;;;;;;5447692;26;20355;-70
2024/04/18 03:10:54;;;;;;;12.40;9.98;;;7.70;99.90;;;;;;5449507;26;20002;-69
2024/04/18 03:13:20;;;;;;;14.30;11.05;;;7.70;99.90;;;;;;5452126;26;20668;-70
2024/04/18 03:15:45;;;;;;;15.73;11.63;;;7.60;99.90;;;;;;5452025;26;20394;-70
2024/04/18 03:18:12;;;;;;;16.98;10.88;;;7.60;99.90;;;;;;5452478;26;20003;-70
2024/04/18 03:20:38;;;;;;;16.88;11.07;;;7.70;99.90;;;;;;5451643;26;20026;-70
2024/04/18 03:23:04;;;;;;;14.80;11.07;;;7.70;99.90;;;;;;5450796;26;19999;-70
2024/04/18 03:25:30;;;;;;;17.15;11.60;;;7.70;99.90;;;;;;5449915;26;20475;-70
2024/04/18 03:27:56;;;;;;;15.00;11.10;;;7.60;99.90;;;;;;5451696;26;20068;-70
2024/04/18 03:30:21;;;;;;;15.18;10.68;;;7.70;99.90;;;;;;5450370;26;19999;-70
2024/04/18 03:32:48;;;;;;;13.60;11.13;;;7.60;99.90;;;;;;5451119;26;19999;-70
2024/04/18 03:35:13;;;;;;;17.17;11.80;;;7.60;99.90;;;;;;5448701;26;19995;-69
2024/04/18 03:37:39;;;;;;;13.85;11.00;;;7.70;99.90;;;;;;5420903;26;20065;-70
2024/04/18 03:40:06;;;;;;;17.35;11.73;;;7.60;99.90;;;;;;5443579;26;20447;-69
2024/04/18 03:42:31;;;;;;;17.52;11.95;;;7.60;99.90;;;;;;5415819;26;20068;-70
2024/04/18 03:44:59;;;;;;;18.40;11.10;;;7.50;99.90;;;;;;5415985;26;19996;-70
2024/04/18 03:47:25;;;;;;;16.92;11.18;;;7.40;99.90;;;;;;5415541;26;19996;-70
2024/04/18 03:49:50;;;;;;;13.93;11.32;;;7.40;99.90;;;;;;5415455;26;20013;-70
2024/04/18 03:52:16;;;;;;;16.58;11.85;;;7.40;99.90;;;;;;5446739;26;19995;-70
2024/04/18 03:54:42;;;;;;;16.70;11.35;;;7.50;99.90;;;;;;5453497;26;20006;-70
2024/04/18 03:57:08;;;;;;;14.00;10.13;;;7.40;99.90;;;;;;5454693;26;20030;-70
2024/04/18 03:59:33;;;;;;;16.38;10.90;;;7.40;99.90;;;;;;5455227;26;19995;-70
2024/04/18 04:01:59;;;;;;;12.38;9.75;;;7.40;99.90;;;;;;5453288;26;20823;-70
2024/04/18 04:04:25;;;;;;;17.52;10.73;;;7.40;99.90;;;;;;5454859;26;19998;-70
2024/04/18 04:06:51;;;;;;;16.38;10.18;;;7.40;99.90;;;;;;5454091;26;20476;-70
2024/04/18 04:09:16;;;;;;;15.60;11.18;;;7.40;99.90;;;;;;5451714;26;20331;-70
2024/04/18 04:11:42;;;;;;;16.23;10.93;;;7.40;99.90;;;;;;5455004;26;20320;-70
2024/04/18 04:14:09;;;;;;;17.63;11.85;;;7.40;99.90;;;;;;5454810;26;20456;-70
2024/04/18 04:16:35;;;;;;;12.90;10.30;;;7.40;99.90;;;;;;5452857;26;20669;-70
2024/04/18 04:19:00;;;;;;;15.90;10.27;;;7.40;99.90;;;;;;5445871;26;19996;-70
2024/04/18 04:21:26;;;;;;;13.98;11.35;;;7.30;99.90;;;;;;5438642;26;20042;-69
2024/04/18 04:23:52;;;;;;;13.73;11.52;;;7.30;99.90;;;;;;5417104;26;20032;-70
2024/04/18 04:26:19;;;;;;;14.32;11.20;;;7.30;99.90;;;;;;5418125;26;20345;-70
2024/04/18 04:28:45;;;;;;;15.20;10.80;;;7.30;99.90;;;;;;5416835;26;20012;-70
2024/04/18 04:31:10;;;;;;;12.55;10.25;;;7.30;99.90;;;;;;5416686;26;20341;-69
2024/04/18 04:33:36;;;;;;;11.80;9.82;;;7.30;99.90;;;;;;5417072;26;20032;-69
2024/04/18 04:36:02;;;;;;;20.17;12.15;;;7.20;99.90;;;;;;5416929;26;20006;-70
2024/04/18 04:38:27;;;;;;;16.13;10.77;;;7.30;99.90;;;;;;5416317;26;20086;-70
2024/04/18 04:40:53;;;;;;;15.25;10.70;;;7.20;99.90;;;;;;5417482;26;20081;-69
2024/04/18 04:43:20;;;;;;;15.57;10.55;;;7.10;99.90;;;;;;5416834;26;20010;-70
2024/04/18 04:45:46;;;;;;;14.02;10.40;;;7.10;99.90;;;;;;5416330;26;20006;-68
2024/04/18 04:48:12;;;;;;;21.73;11.80;;;7.20;99.90;;;;;;5417142;26;20003;-70
2024/04/18 04:50:40;;;;;;;13.07;9.43;;;7.10;99.90;;;;;;5421383;26;20009;-69
2024/04/18 04:53:07;;;;;;;14.80;10.18;;;7.00;99.90;;;;;;5452833;26;20012;-70
2024/04/18 04:55:32;;;;;;;14.95;10.73;;;7.00;99.90;;;;;;5453343;26;20408;-69
2024/04/18 04:57:58;;;;;;;14.52;10.63;;;7.00;99.90;;;;;;5452477;26;20026;-70
2024/04/18 05:00:24;;;;;;;14.75;10.82;;;7.00;99.90;;;;;;5452918;26;20336;-69
2024/04/18 05:02:49;;;;;;;17.08;10.40;;;7.00;99.90;;;;;;5451378;26;20010;-70
2024/04/18 05:05:15;;;;;;;14.57;11.02;;;7.00;99.90;;;;;;5452309;26;20332;-70
2024/04/18 05:07:41;;;;;;;15.68;10.32;;;7.00;99.90;;;;;;5453916;26;20018;-70
2024/04/18 05:10:06;;;;;;;17.17;10.07;;;7.00;99.90;;;;;;5450535;26;20003;-70
2024/04/18 05:12:32;;;;;;;14.45;10.82;;;6.90;99.90;;;;;;5453480;26;20454;-70
2024/04/18 05:14:58;;;;;;;14.23;10.80;;;6.90;99.90;;;;;;5452969;26;20011;-70
2024/04/18 05:17:24;;;;;;;14.88;11.10;;;6.90;99.90;;;;;;5454056;26;20451;-70
2024/04/18 05:19:50;;;;;;;18.95;11.38;;;6.90;99.90;;;;;;5452336;26;20087;-70
2024/04/18 05:22:16;;;;;;;14.88;10.07;;;7.00;99.90;;;;;;5453768;26;20344;-70
2024/04/18 05:24:41;;;;;;;18.48;10.57;;;7.00;99.90;;;;;;5452471;26;20601;-70
2024/04/18 05:27:07;;;;;;;11.73;9.25;;;7.00;99.90;;;;;;5437895;26;20316;-70
2024/04/18 05:32:17;;;;;;;12.20;9.65;;;7.00;99.90;;;;;;5452874;26;20010;-70
2024/04/18 05:34:43;;;;;;;16.58;10.18;;;7.00;99.90;;;;;;5452596;26;20027;-68
2024/04/18 05:37:08;;;;;;;15.02;10.65;;;7.10;99.90;;;;;;5453066;26;20014;-70
2024/04/18 05:39:34;;;;;;;13.63;9.70;;;7.00;99.90;;;;;;5452191;26;20158;-70
2024/04/18 05:42:00;;;;;;;14.60;9.50;;;7.10;99.90;;;;;;5450917;26;20013;-69
2024/04/18 05:44:25;;;;;;;16.13;9.60;;;7.10;99.90;;;;;;5453471;26;20015;-68
2024/04/18 05:46:51;;;;;;;11.90;9.70;;;7.10;99.90;;;;;;5453500;26;20083;-70
2024/04/18 05:49:20;;;;;;;13.85;9.68;;;7.10;99.90;;;;;;5453157;26;20333;-69
2024/04/18 05:51:46;;;;;;;14.32;9.90;;;7.10;99.90;;;;;;5453027;26;20003;-70
2024/04/18 05:54:13;;;;;;;15.70;10.05;;;7.10;99.90;;;;;;5452885;26;20354;-69
2024/04/18 05:56:38;;;;;;;13.50;9.45;;;7.10;99.90;;;;;;5435689;26;20054;-69
2024/04/18 05:59:04;;;;;;;13.20;9.35;;;7.10;99.90;;;;;;5434771;26;19991;-69
2024/04/18 06:01:30;;;;;;;16.25;9.75;;;7.10;99.90;;;;;;5451427;26;19994;-70
2024/04/18 06:03:55;;;;;;;15.93;10.20;;;7.20;99.90;;;;;;5451325;26;20561;-69
2024/04/18 06:06:21;;;;;;;14.98;9.57;;;7.20;99.90;;;;;;5452296;26;20071;-69
2024/04/18 06:08:47;;;;;;;11.15;8.88;;;7.20;99.90;;;;;;5451941;26;20006;-68
2024/04/18 06:11:15;;;;;;;13.65;9.02;;;7.20;99.90;;;;;;5452496;26;19994;-69
2024/04/18 06:13:41;;;;;;;14.23;9.88;;;7.10;99.90;;;;;;5451503;26;19999;-69
2024/04/18 06:16:06;;;;;;;16.73;10.80;;;7.00;99.90;;;;;;5452454;26;19995;-70
2024/04/18 06:18:32;;;;;;;15.13;9.57;;;7.10;99.90;;;;;;5452562;26;20436;-70
2024/04/18 06:21:00;;;;;;;14.93;9.38;;;7.20;99.90;;;;;;5451787;26;20013;-69
2024/04/18 06:23:26;;;;;;;17.73;9.95;;;7.20;99.90;;;;;;5452232;26;20011;-69
2024/04/18 06:25:52;;;;;;;12.93;9.27;;;7.30;99.90;;;;;;5451445;26;20516;-70
2024/04/18 06:28:17;;;;;;;12.23;8.77;;;7.30;99.90;;;;;;5442665;26;20336;-69
2024/04/18 06:30:43;;;;;;;11.85;8.50;;;7.40;99.90;;;;;;5420739;26;20003;-69
2024/04/18 06:33:12;;;;;;;15.07;9.45;;;7.40;99.90;;;;;;5441500;26;19991;-70
2024/04/18 06:35:38;;;;;;;14.32;9.50;;;7.40;99.90;;;;;;5448767;26;20015;-69
2024/04/18 06:38:05;;;;;;;12.73;8.70;;;7.40;99.90;;;;;;5452348;26;20462;-69
2024/04/18 06:40:31;;;;;;;13.93;8.68;;;7.50;99.90;;;;;;5447629;26;20002;-70
2024/04/18 06:42:57;;;;;;;15.32;8.05;;;7.60;99.90;;;;;;5443367;26;19994;-69
2024/04/18 06:45:24;;;;;;;14.02;7.88;;;7.60;99.90;;;;;;5446851;26;20007;-69
2024/04/18 06:47:49;;;;;;;12.38;7.57;;;7.60;99.90;;;;;;5451644;26;19994;-69
2024/04/18 06:50:17;;;;;;;14.23;6.78;;;7.60;99.90;;;;;;5438167;26;19999;-70
2024/04/18 06:52:42;;;;;;;9.52;7.05;;;7.70;99.90;;;;;;5439671;26;20438;-71
2024/04/18 06:55:08;;;;;;;12.85;7.50;;;7.70;99.90;;;;;;5446992;26;19995;-69
2024/04/18 06:57:34;;;;;;;12.00;6.80;;;7.70;99.90;;;;;;5448130;26;20029;-71
2024/04/18 06:59:59;;;;;;;12.77;6.80;;;7.70;99.90;;;;;;5437853;26;20003;-70
2024/04/18 07:02:25;;;;;;;13.38;6.07;;;7.80;99.90;;;;;;5444823;26;20417;-70
2024/04/18 07:04:51;;;;;;;12.98;5.75;;;7.80;99.90;;;;;;5440609;26;20010;-70
2024/04/18 07:07:16;;;;;;;15.27;5.28;;;7.80;99.90;;;;;;5450022;26;20470;-71
2024/04/18 07:09:42;;;;;;;10.45;5.93;;;7.90;99.90;;;;;;5448737;26;20097;-69
2024/04/18 07:12:08;;;;;;;10.90;5.53;;;8.00;99.90;;;;;;5451568;26;20347;-69
2024/04/18 07:14:34;;;;;;;9.98;5.60;;;8.00;99.90;;;;;;5451783;26;19995;-70
2024/04/18 07:16:59;;;;;;;11.02;4.80;;;8.10;99.90;;;;;;5450963;26;20007;-70
2024/04/18 07:19:25;;;;;;;10.25;5.53;;;8.10;99.90;;;;;;5447894;26;19999;-70
2024/04/18 07:21:51;;;;;;;10.32;4.85;;;8.20;99.90;;;;;;5451189;26;20574;-70
2024/04/18 07:24:16;;;;;;;6.55;3.58;;;8.20;99.90;;;;;;5447635;26;20009;-70
2024/04/18 07:26:42;;;;;;;13.35;3.63;;;8.30;99.90;;;;;;5449597;26;19999;-69
2024/04/18 07:29:09;;;;;;;8.43;3.50;;;8.40;99.90;;;;;;5451764;26;19999;-69
2024/04/18 07:31:34;;;;;;;6.38;3.33;;;8.40;99.90;;;;;;5448067;26;20010;-69
2024/04/18 07:34:00;;;;;;;13.20;3.22;;;8.50;99.90;;;;;;5449928;26;19998;-69
2024/04/18 07:36:26;;;;;;;10.95;4.15;;;8.60;99.90;;;;;;5450426;26;20007;-69
2024/04/18 07:38:51;;;;;;;6.85;3.65;;;8.70;99.90;;;;;;5449845;26;20060;-69
2024/04/18 07:41:18;;;;;;;8.40;4.03;;;8.80;99.90;;;;;;5449091;26;20325;-69
2024/04/18 07:43:43;;;;;;;7.43;3.65;;;8.90;99.90;;;;;;5451164;26;20009;-69
2024/04/18 07:46:12;;;;;;;7.38;4.32;;;9.00;99.90;;;;;;5451610;26;20443;-70
2024/04/18 07:48:39;;;;;;;7.93;3.90;;;9.10;99.90;;;;;;5450779;26;20006;-69
2024/04/18 07:51:05;;;;;;;10.25;4.32;;;9.20;99.90;;;;;;5449065;26;19991;-69
2024/04/18 07:53:30;;;;;;;9.98;4.38;;;9.30;99.90;;;;;;5451123;26;20013;-69
2024/04/18 07:55:56;;;;;;;8.27;3.20;;;9.50;99.90;;;;;;5450661;26;20048;-70
2024/04/18 07:58:22;;;;;;;8.60;3.30;;;9.50;99.90;;;;;;5449943;26;20036;-69
2024/04/18 08:00:51;;;;;;;8.73;3.80;;;9.60;99.90;;;;;;5450909;26;20071;-69
2024/04/18 08:03:17;;;;;;;9.25;2.85;;;9.80;99.90;;;;;;5451154;26;19995;-69
2024/04/18 08:05:43;;;;;;;7.15;3.13;;;9.90;99.90;;;;;;5451074;26;20459;-70
2024/04/18 08:08:09;;;;;;;7.20;3.30;;;9.80;99.90;;;;;;5447709;26;20011;-69
2024/04/18 08:10:35;;;;;;;8.90;2.70;;;9.80;99.90;;;;;;5451021;26;20071;-69
2024/04/18 08:13:00;;;;;;;6.22;3.10;;;9.90;99.90;;;;;;5450939;26;20019;-69
2024/04/18 08:15:26;;;;;;;6.35;3.00;;;9.90;99.90;;;;;;5450633;26;20003;-69
2024/04/18 08:17:52;;;;;;;3.25;2.40;;;10.10;99.90;;;;;;5450119;26;20359;-68
2024/04/18 08:20:17;;;;;;;4.78;2.22;;;10.20;99.90;;;;;;5451084;26;19999;-69
2024/04/18 08:22:44;;;;;;;7.93;2.42;;;10.30;99.90;;;;;;5450562;26;20427;-69
2024/04/18 08:25:10;;;;;;;7.78;2.80;;;10.40;99.90;;;;;;5451257;26;19999;-69
2024/04/18 08:27:35;;;;;;;7.88;2.35;;;10.30;99.90;;;;;;5449540;26;19999;-69
2024/04/18 08:30:02;;;;;;;11.68;2.55;;;10.40;99.90;;;;;;5450682;26;19999;-70
2024/04/18 08:32:28;;;;;;;7.32;2.55;;;10.50;99.90;;;;;;5450455;26;20002;-68
2024/04/18 08:34:53;;;;;;;7.75;2.15;;;10.70;99.90;;;;;;5450529;26;20038;-70
2024/04/18 08:37:20;;;;;;;7.55;2.20;;;10.70;99.90;;;;;;5450028;26;20067;-71
2024/04/18 08:39:45;;;;;;;5.28;1.95;;;10.90;99.90;;;;;;5454161;26;20014;-70
2024/04/18 08:42:14;;;;;;;9.05;2.15;;;11.10;99.90;;;;;;5453755;26;20002;-70
2024/04/18 08:44:40;;;;;;;6.57;1.63;;;11.20;99.90;;;;;;5452984;26;20010;-70
2024/04/18 08:47:08;;;;;;;10.27;2.67;;;11.30;99.90;;;;;;5452942;26;20439;-70
2024/04/18 08:49:38;;;;;;;9.68;2.00;;;11.30;99.90;;;;;;5453264;26;20010;-71
2024/04/18 08:52:06;;;;;;;11.60;2.10;;;11.40;99.90;;;;;;5452157;26;20010;-71
2024/04/18 08:54:32;;;;;;;8.45;1.80;;;11.40;99.90;;;;;;5450632;26;20114;-71
2024/04/18 08:57:00;;;;;;;7.07;2.05;;;11.40;99.90;;;;;;5451319;26;20331;-71
2024/04/18 08:59:27;;;;;;;3.42;1.42;;;11.40;99.90;;;;;;5451840;26;19999;-71
2024/04/18 09:01:53;;;;;;;4.97;1.77;;;11.60;99.90;;;;;;5454108;26;20009;-72
2024/04/18 09:04:19;;;;;;;2.97;1.13;;;11.80;99.90;;;;;;5452781;26;19999;-72
2024/04/18 09:06:45;;;;;;;11.18;2.03;;;12.10;99.90;;;;;;5453527;26;20013;-72
2024/04/18 09:09:16;;;;;;;4.05;1.83;;;12.30;99.90;;;;;;5451698;26;19999;-71
2024/04/18 09:11:45;;;;;;;4.38;1.88;;;12.10;99.90;;;;;;5430173;26;20719;-71
2024/04/18 09:14:11;;;;;;;3.95;1.70;;;12.00;99.90;;;;;;5453591;26;20439;-71
2024/04/18 09:16:38;;;;;;;4.90;1.30;;;11.90;99.90;;;;;;5453056;26;20047;-72
2024/04/18 09:19:04;;;;;;;4.18;1.80;;;11.80;99.90;;;;;;5446209;26;20003;-72
2024/04/18 09:21:30;;;;;;;4.82;2.20;;;11.70;99.90;;;;;;5453479;26;20032;-72
2024/04/18 09:23:57;;;;;;;5.35;1.70;;;11.60;99.90;;;;;;5452258;26;20002;-71
2024/04/18 09:26:26;;;;;;;6.80;1.67;;;11.60;99.90;;;;;;5451353;26;20010;-71
2024/04/18 09:28:52;;;;;;;5.18;1.67;;;11.70;99.90;;;;;;5451732;26;20147;-72
2024/04/18 09:31:19;;;;;;;7.50;1.50;;;11.80;99.90;;;;;;5451040;26;20475;-72
2024/04/18 09:33:48;;;;;;;3.15;1.33;;;11.80;99.90;;;;;;5409359;26;20154;-72
2024/04/18 09:36:16;;;;;;;7.72;1.38;;;11.70;99.90;;;;;;5430493;26;20076;-72
2024/04/18 09:38:46;;;;;;;6.28;1.75;;;11.70;99.90;;;;;;5432200;26;20084;-72
2024/04/18 09:41:15;;;;;;;5.68;2.53;;;11.70;99.90;;;;;;5422676;26;20452;-72
2024/04/18 09:43:43;;;;;;;5.32;1.73;;;11.60;99.90;;;;;;5425650;26;20022;-72
2024/04/18 09:46:09;;;;;;;7.82;1.83;;;11.70;99.90;;;;;;5430307;26;20569;-71
2024/04/18 09:48:36;;;;;;;9.35;1.92;;;11.80;99.90;;;;;;5421041;26;20003;-73
2024/04/18 09:51:05;;;;;;;3.08;1.38;;;11.90;99.90;;;;;;5424545;26;20015;-75
2024/04/18 09:53:32;;;;;;;3.65;1.42;;;12.00;99.90;;;;;;5469135;26;20032;-74
2024/04/18 09:56:00;;;;;;;3.63;1.30;;;12.10;99.90;;;;;;5426917;26;20027;-74
2024/04/18 09:58:27;;;;;;;4.90;1.88;;;12.10;99.90;;;;;;5427212;26;20075;-74
2024/04/18 10:00:56;;;;;;;4.07;1.80;;;12.10;99.90;;;;;;5419945;26;20014;-72
2024/04/18 10:03:24;;;;;;;8.10;1.98;;;12.10;99.90;;;;;;5425461;26;20802;-75
2024/04/18 10:05:53;;;;;;;1.58;1.42;;;12.00;99.90;;;;;;5417426;26;20015;-74
2024/04/18 10:08:24;;;;;;;5.43;1.55;;;11.90;99.90;;;;;;5416331;26;20566;-74
2024/04/18 10:10:50;;;;;;;6.68;1.60;;;11.80;99.90;;;;;;5420634;26;20193;-73
2024/04/18 10:13:16;;;;;;;4.13;2.08;;;11.80;99.90;;;;;;5426043;26;20443;-73
2024/04/18 10:15:42;;;;;;;4.68;2.35;;;11.80;99.90;;;;;;5416272;26;20000;-74
2024/04/18 10:18:19;;;;;;;6.68;2.40;;;11.90;99.90;;;;;;5417829;26;20000;-73
2024/04/18 10:20:45;;;;;;;9.10;2.58;;;12.10;99.90;;;;;;5418526;26;20301;-74
2024/04/18 10:23:13;;;;;;;5.20;2.28;;;12.30;99.90;;;;;;5422126;26;20507;-74
2024/04/18 10:25:45;;;;;;;6.13;2.28;;;12.40;99.90;;;;;;5426521;26;20520;-74
2024/04/18 10:28:20;;;;;;;3.88;1.80;;;12.50;99.90;;;;;;5427115;26;20362;-75
2024/04/18 10:30:47;;;;;;;7.85;2.17;;;12.50;99.90;;;;;;5421817;26;20006;-74
2024/04/18 10:33:13;;;;;;;4.47;1.98;;;12.50;99.90;;;;;;5427934;26;20008;-75
2024/04/18 10:35:39;;;;;;;6.43;1.52;;;12.50;99.90;;;;;;5429890;26;20446;-75
2024/04/18 10:38:05;;;;;;;1.77;1.20;;;12.40;99.90;;;;;;5425286;26;20566;-73
2024/04/18 10:40:32;;;;;;;2.10;0.95;;;12.40;99.90;;;;;;5431505;26;20139;-74
2024/04/18 10:43:16;;;;;;;2.05;1.13;;;12.40;99.90;;;;;;5429855;26;20339;-74
2024/04/18 10:45:42;;;;;;;4.82;2.03;;;12.50;99.90;;;;;;5421544;26;19999;-75
2024/04/18 10:48:08;;;;;;;3.63;1.25;;;12.60;99.90;;;;;;5429733;26;20039;-74
2024/04/18 10:50:39;;;;;;;4.15;1.60;;;12.80;99.90;;;;;;5427085;26;20010;-74
2024/04/18 10:53:05;;;;;;;3.92;1.52;;;13.00;99.90;;;;;;5425133;26;20006;-74
2024/04/18 10:55:32;;;;;;;5.45;1.70;;;13.10;99.90;;;;;;5428486;26;20460;-74
2024/04/18 10:57:59;;;;;;;2.08;1.05;;;13.10;99.90;;;;;;5426541;26;20063;-74
2024/04/18 11:00:25;;;;;;;2.40;1.25;;;13.20;99.90;;;;;;5424106;26;20011;-73
2024/04/18 11:02:56;;;;;;;7.45;1.75;;;13.40;99.90;;;;;;5422670;26;20018;-74
2024/04/18 11:05:21;;;;;;;5.05;1.38;;;13.50;99.90;;;;;;5428581;26;20447;-74
2024/04/18 11:07:49;;;;;;;2.47;1.10;;;13.70;99.90;;;;;;5432162;26;20013;-74
2024/04/18 11:10:15;;;;;;;2.63;1.50;;;13.80;99.90;;;;;;5433114;26;20467;-73
2024/04/18 11:12:41;;;;;;;3.75;1.35;;;14.10;99.90;;;;;;5436650;26;20007;-73
2024/04/18 11:15:07;;;;;;;3.85;1.20;;;14.40;99.90;;;;;;5427929;26;20003;-71
2024/04/18 11:17:36;;;;;;;1.55;1.02;;;14.70;99.90;;;;;;5430828;26;20007;-72
2024/04/18 11:20:02;;;;;;;3.08;1.50;;;14.80;99.90;;;;;;5435172;26;20003;-72
2024/04/18 11:22:28;;;;;;;2.78;1.17;;;15.00;99.90;;;;;;5421114;26;19999;-74
2024/04/18 11:24:56;;;;;;;4.15;1.50;;;15.10;99.90;;;;;;5426313;26;20378;-72
2024/04/18 11:27:25;;;;;;;2.95;1.40;;;15.30;99.90;;;;;;5416403;26;20019;-73
2024/04/18 11:29:51;;;;;;;2.97;1.35;;;15.30;99.90;;;;;;5423081;26;20439;-74
2024/04/18 11:32:17;;;;;;;3.03;1.00;;;15.20;99.90;;;;;;5412758;26;20014;-74
2024/04/18 11:34:43;;;;;;;2.63;1.50;;;14.90;99.90;;;;;;5424201;26;20332;-74
2024/04/18 11:37:11;;;;;;;3.17;1.00;;;14.70;99.90;;;;;;5416739;26;20015;-73
2024/04/18 11:39:39;;;;;;;2.08;1.10;;;14.40;99.90;;;;;;5418502;26;20030;-74
2024/04/18 11:42:06;;;;;;;8.38;2.15;;;14.20;99.90;;;;;;5419986;26;20003;-74
2024/04/18 11:44:32;;;;;;;4.20;1.73;;;14.00;99.90;;;;;;5420475;26;20007;-73
2024/04/18 11:46:58;;;;;;;2.42;1.33;;;13.70;99.90;;;;;;5419983;26;20477;-76
2024/04/18 11:49:25;;;;;;;4.40;1.45;;;13.70;99.90;;;;;;5419855;26;20011;-74
2024/04/18 11:51:50;;;;;;;2.50;1.10;;;13.60;99.90;;;;;;5422826;26;20009;-75
2024/04/18 11:54:16;;;;;;;5.85;1.50;;;13.60;99.90;;;;;;5418086;26;20302;-74
2024/04/18 11:56:42;;;;;;;7.18;1.95;;;13.60;99.90;;;;;;5422918;26;20002;-74
2024/04/18 11:59:08;;;;;;;5.18;1.30;;;13.60;99.90;;;;;;5420915;26;20459;-74
2024/04/18 12:01:33;;;;;;;3.05;1.50;;;13.60;99.90;;;;;;5428487;26;20003;-75
2024/04/18 12:03:59;;;;;;;2.17;1.60;;;13.60;99.90;;;;;;5428928;26;19999;-74
2024/04/18 12:06:25;;;;;;;1.70;1.15;;;13.70;99.90;;;;;;5420071;26;21057;-74
2024/04/18 12:08:51;;;;;;;3.00;1.45;;;14.20;99.90;;;;;;5425479;26;20031;-72
2024/04/18 12:11:17;;;;;;;1.77;1.50;;;14.50;99.90;;;;;;5420453;26;20044;-71
2024/04/18 12:13:42;;;;;;;3.40;1.88;;;14.70;99.90;;;;;;5427498;26;19999;-73
2024/04/18 12:16:08;;;;;;;3.67;1.70;;;14.80;99.90;;;;;;5420633;26;20454;-73
2024/04/18 12:18:34;;;;;;;2.10;1.20;;;14.80;99.90;;;;;;5424140;26;20383;-73
2024/04/18 12:20:59;;;;;;;2.80;1.35;;;14.50;99.90;;;;;;5429950;26;20011;-73
2024/04/18 12:23:26;;;;;;;3.17;1.50;;;14.40;99.90;;;;;;5431866;26;20071;-71
2024/04/18 12:25:52;;;;;;;4.47;1.80;;;14.40;99.90;;;;;;5429861;26;20456;-72
2024/04/18 12:28:17;;;;;;;4.78;2.08;;;14.30;99.90;;;;;;5428333;26;20007;-73
2024/04/18 12:30:43;;;;;;;5.82;1.95;;;14.20;99.90;;;;;;5436966;26;20349;-72
2024/04/18 12:33:12;;;;;;;4.00;2.03;;;14.40;99.90;;;;;;5432522;26;20079;-73
2024/04/18 12:35:38;;;;;;;5.85;2.17;;;14.40;99.90;;;;;;5427806;26;20006;-73
2024/04/18 12:38:04;;;;;;;5.43;2.00;;;14.40;99.90;;;;;;5437360;26;21051;-73
2024/04/18 12:40:29;;;;;;;2.85;2.05;;;14.40;99.90;;;;;;5429244;26;20011;-73
2024/04/18 12:42:55;;;;;;;3.95;2.08;;;14.40;99.90;;;;;;5435529;26;20003;-76